createdAt,value
2019-05-07T00:02:23.942Z,4.55
2019-05-07T00:04:52.767Z,3.52
2019-05-07T00:07:22.424Z,4.05
2019-05-07T00:09:52.565Z,3.27
2019-05-07T00:12:23.090Z,5.62
2019-05-07T00:15:00.916Z,5.17
2019-05-07T00:17:22.924Z,4.33
2019-05-07T00:19:52.597Z,5.10
2019-05-07T00:22:22.690Z,5.00
2019-05-07T00:24:52.229Z,6.35
2019-05-07T00:27:22.575Z,11.53
2019-05-07T00:29:52.137Z,8.25
2019-05-07T00:32:22.127Z,7.17
2019-05-07T00:35:02.482Z,7.20
2019-05-07T00:37:35.931Z,8.60
2019-05-07T00:40:13.688Z,10.08
2019-05-07T00:43:02.578Z,8.70
2019-05-07T00:45:42.104Z,9.05
2019-05-07T00:48:12.676Z,12.88
2019-05-07T00:50:43.415Z,9.80
2019-05-07T00:53:13.097Z,9.45
2019-05-07T00:55:42.385Z,11.33
2019-05-07T00:58:13.253Z,10.08
2019-05-07T01:00:42.270Z,11.93
2019-05-07T01:03:12.868Z,12.60
2019-05-07T01:05:43.170Z,10.82
2019-05-07T01:08:13.143Z,12.28
2019-05-07T01:10:42.389Z,10.58
2019-05-07T01:13:12.567Z,10.53
2019-05-07T01:15:42.990Z,12.85
2019-05-07T01:18:12.432Z,9.70
2019-05-07T01:20:42.322Z,8.63
2019-05-07T01:23:13.442Z,8.98
2019-05-07T01:25:43.028Z,11.28
2019-05-07T01:28:13.206Z,9.58
2019-05-07T01:30:43.225Z,7.75
2019-05-07T01:33:13.816Z,10.78
2019-05-07T01:35:44.265Z,6.97
2019-05-07T01:38:15.136Z,8.90
2019-05-07T01:40:44.007Z,6.92
2019-05-07T01:43:12.836Z,6.40
2019-05-07T01:45:49.496Z,4.62
2019-05-07T01:48:16.043Z,4.67
2019-05-07T01:50:44.871Z,4.22
2019-05-07T01:53:13.724Z,5.03
2019-05-07T01:55:42.916Z,2.98
2019-05-07T01:58:12.511Z,2.90
2019-05-07T02:00:42.426Z,3.15
2019-05-07T02:03:16.023Z,4.45
2019-05-07T02:06:02.214Z,4.05
2019-05-07T02:08:44.678Z,3.80
2019-05-07T02:13:43.064Z,3.58
2019-05-07T02:16:12.457Z,3.77
2019-05-07T02:18:42.482Z,3.90
2019-05-07T02:21:12.855Z,3.37
2019-05-07T02:23:42.549Z,3.60
2019-05-07T02:26:13.311Z,6.12
2019-05-07T02:28:42.743Z,2.90
2019-05-07T02:31:14.998Z,3.58
2019-05-07T02:33:43.354Z,5.97
2019-05-07T02:36:14.186Z,3.25
2019-05-07T02:38:56.537Z,2.85
2019-05-07T02:41:33.265Z,2.60
2019-05-07T02:44:04.208Z,5.03
2019-05-07T02:46:36.254Z,2.87
2019-05-07T02:49:09.237Z,4.47
2019-05-07T02:51:53.118Z,2.60
2019-05-07T02:54:24.176Z,2.15
2019-05-07T02:56:53.535Z,3.05
2019-05-07T02:59:23.366Z,3.92
2019-05-07T03:01:53.746Z,2.83
2019-05-07T03:04:24.972Z,4.97
2019-05-07T03:06:54.223Z,3.42
2019-05-07T03:09:23.646Z,3.15
2019-05-07T03:11:52.975Z,2.98
2019-05-07T03:14:23.344Z,4.92
2019-05-07T03:16:53.664Z,3.22
2019-05-07T03:19:24.177Z,4.80
2019-05-07T03:21:54.347Z,4.50
2019-05-07T03:24:34.207Z,2.72
2019-05-07T03:27:03.368Z,2.77
2019-05-07T03:29:33.307Z,4.92
2019-05-07T03:32:26.688Z,2.72
2019-05-07T03:34:57.793Z,4.42
2019-05-07T03:37:31.752Z,2.85
2019-05-07T03:39:58.247Z,3.42
2019-05-07T03:42:27.100Z,4.05
2019-05-07T03:44:57.512Z,6.12
2019-05-07T03:47:33.102Z,5.12
2019-05-07T03:50:03.253Z,2.87
2019-05-07T03:52:33.493Z,2.55
2019-05-07T03:55:03.698Z,2.50
2019-05-07T03:57:33.411Z,4.60
2019-05-07T04:00:04.291Z,5.30
2019-05-07T04:02:33.603Z,4.12
2019-05-07T04:05:04.273Z,2.85
2019-05-07T04:07:33.723Z,3.50
2019-05-07T04:10:04.860Z,2.52
2019-05-07T04:12:34.430Z,2.95
2019-05-07T04:15:03.732Z,3.08
2019-05-07T04:17:33.824Z,5.28
2019-05-07T04:20:04.546Z,4.47
2019-05-07T04:22:34.812Z,3.27
2019-05-07T04:25:20.263Z,4.45
2019-05-07T04:28:10.304Z,3.17
2019-05-07T04:30:39.682Z,5.22
2019-05-07T04:33:12.889Z,6.40
2019-05-07T04:35:45.125Z,3.12
2019-05-07T04:38:14.062Z,5.42
2019-05-07T04:40:43.672Z,6.83
2019-05-07T04:43:13.538Z,3.35
2019-05-07T04:45:43.460Z,3.58
2019-05-07T04:48:14.250Z,4.53
2019-05-07T04:50:47.678Z,3.83
2019-05-07T04:53:15.084Z,5.50
2019-05-07T04:55:44.322Z,5.30
2019-05-07T04:58:14.166Z,4.33
2019-05-07T05:00:43.552Z,5.20
2019-05-07T05:03:24.064Z,8.78
2019-05-07T05:05:53.677Z,3.75
2019-05-07T05:08:23.589Z,3.10
2019-05-07T05:10:53.731Z,6.85
2019-05-07T05:13:23.884Z,5.75
2019-05-07T05:15:53.033Z,4.08
2019-05-07T05:18:22.423Z,5.67
2019-05-07T05:20:52.809Z,6.83
2019-05-07T05:23:35.446Z,4.45
2019-05-07T05:26:04.268Z,3.65
2019-05-07T05:28:33.130Z,6.10
2019-05-07T05:31:03.540Z,6.05
2019-05-07T05:33:32.508Z,5.80
2019-05-07T05:36:03.058Z,4.30
2019-05-07T05:38:32.898Z,6.03
2019-05-07T05:41:02.879Z,4.92
2019-05-07T05:43:48.424Z,3.87
2019-05-07T05:46:19.107Z,4.95
2019-05-07T05:48:47.927Z,4.70
2019-05-07T05:51:33.444Z,4.70
2019-05-07T05:54:12.812Z,5.45
2019-05-07T05:56:55.268Z,4.10
2019-05-07T05:59:37.108Z,4.30
2019-05-07T06:02:15.811Z,5.47
2019-05-07T06:05:02.343Z,8.20
2019-05-07T06:07:35.645Z,4.70
2019-05-07T06:10:22.503Z,4.58
2019-05-07T06:12:53.127Z,5.05
2019-05-07T06:15:41.917Z,6.97
2019-05-07T06:18:28.673Z,5.60
2019-05-07T06:20:59.072Z,6.40
2019-05-07T06:23:33.173Z,6.47
2019-05-07T06:26:05.099Z,4.92
2019-05-07T06:28:33.066Z,5.28
2019-05-07T06:31:02.245Z,5.75
2019-05-07T06:33:32.402Z,6.20
2019-05-07T06:36:02.827Z,5.45
2019-05-07T06:38:33.683Z,6.37
2019-05-07T06:41:04.079Z,5.92
2019-05-07T06:43:34.508Z,9.50
2019-05-07T06:46:05.045Z,6.17
2019-05-07T06:48:41.801Z,6.53
2019-05-07T06:51:04.423Z,4.87
2019-05-07T06:53:33.641Z,5.47
2019-05-07T06:56:03.900Z,4.97
2019-05-07T06:58:34.360Z,4.55
2019-05-07T07:01:12.090Z,6.05
2019-05-07T07:03:45.870Z,5.22
2019-05-07T07:06:22.971Z,5.37
2019-05-07T07:09:09.659Z,5.00
2019-05-07T07:11:43.170Z,5.87
2019-05-07T07:14:12.064Z,6.22
2019-05-07T07:16:42.043Z,4.72
2019-05-07T07:19:12.465Z,5.35
2019-05-07T07:21:42.142Z,5.15
2019-05-07T07:24:12.718Z,4.53
2019-05-07T07:26:42.205Z,5.45
2019-05-07T07:29:12.925Z,6.67
2019-05-07T07:31:52.777Z,4.55
2019-05-07T07:34:22.873Z,4.35
2019-05-07T07:37:09.783Z,3.40
2019-05-07T07:39:36.351Z,4.87
2019-05-07T07:42:06.884Z,6.83
2019-05-07T07:44:35.692Z,2.65
2019-05-07T07:47:04.502Z,6.22
2019-05-07T07:49:33.346Z,2.45
2019-05-07T07:52:03.141Z,2.50
2019-05-07T07:54:32.306Z,4.35
2019-05-07T07:57:02.751Z,1.60
2019-05-07T07:59:49.231Z,2.60
2019-05-07T08:02:23.027Z,3.27
2019-05-07T08:04:52.756Z,1.98
2019-05-07T08:07:22.852Z,4.28
2019-05-07T08:09:52.087Z,4.15
2019-05-07T08:12:22.176Z,2.87
2019-05-07T08:14:51.936Z,3.85
2019-05-07T08:17:22.390Z,2.22
2019-05-07T08:19:52.011Z,5.12
2019-05-07T08:22:22.589Z,3.90
2019-05-07T08:24:52.035Z,3.98
2019-05-07T08:27:22.163Z,2.90
2019-05-07T08:29:52.489Z,4.03
2019-05-07T08:32:28.871Z,3.85
2019-05-07T08:34:59.301Z,7.15
2019-05-07T08:37:28.119Z,2.60
2019-05-07T08:39:56.963Z,5.85
2019-05-07T08:42:25.802Z,4.08
2019-05-07T08:44:56.218Z,7.30
2019-05-07T08:47:32.714Z,4.50
2019-05-07T08:50:02.918Z,4.08
2019-05-07T08:52:32.681Z,4.85
2019-05-07T08:55:02.245Z,4.95
2019-05-07T08:57:31.867Z,6.00
2019-05-07T09:00:02.319Z,3.40
2019-05-07T09:02:32.577Z,7.65
2019-05-07T09:05:02.909Z,3.20
2019-05-07T09:07:32.339Z,5.42
2019-05-07T09:10:02.501Z,7.83
2019-05-07T09:12:31.953Z,4.50
2019-05-07T09:15:02.176Z,6.50
2019-05-07T09:17:31.841Z,5.12
2019-05-07T09:20:02.626Z,2.87
2019-05-07T09:22:32.310Z,4.97
2019-05-07T09:25:03.153Z,6.00
2019-05-07T09:27:33.531Z,5.05
2019-05-07T09:30:19.184Z,5.33
2019-05-07T09:32:51.972Z,5.00
2019-05-07T09:35:24.536Z,6.15
2019-05-07T09:37:53.411Z,4.50
2019-05-07T09:40:22.227Z,3.92
2019-05-07T09:42:52.544Z,3.37
2019-05-07T09:45:22.464Z,4.33
2019-05-07T09:47:52.280Z,4.00
2019-05-07T09:50:22.063Z,5.08
2019-05-07T09:52:51.830Z,6.75
2019-05-07T09:55:23.152Z,4.15
2019-05-07T09:57:52.745Z,5.47
2019-05-07T10:00:22.687Z,4.72
2019-05-07T10:02:52.828Z,4.92
2019-05-07T10:05:21.923Z,3.70
2019-05-07T10:07:52.597Z,5.97
2019-05-07T10:10:22.343Z,5.50
2019-05-07T10:13:02.330Z,4.03
2019-05-07T10:15:33.035Z,5.58
2019-05-07T10:18:15.507Z,5.12
2019-05-07T10:20:44.318Z,6.30
2019-05-07T10:23:23.203Z,4.47
2019-05-07T10:25:53.563Z,4.30
2019-05-07T10:28:23.183Z,4.12
2019-05-07T10:30:52.424Z,5.75
2019-05-07T10:33:22.881Z,3.33
2019-05-07T10:35:52.949Z,4.30
2019-05-07T10:38:22.075Z,4.35
2019-05-07T10:40:51.008Z,6.87
2019-05-07T10:43:22.094Z,5.25
2019-05-07T10:45:54.621Z,4.90
2019-05-07T10:48:25.040Z,3.40
2019-05-07T10:50:55.448Z,5.55
2019-05-07T10:53:24.534Z,5.62
2019-05-07T10:55:53.373Z,4.10
2019-05-07T10:58:22.194Z,3.60
2019-05-07T11:00:52.328Z,3.90
2019-05-07T11:03:21.942Z,6.17
2019-05-07T11:05:51.103Z,4.00
2019-05-07T11:08:21.798Z,9.08
2019-05-07T11:10:52.063Z,7.08
2019-05-07T11:13:21.887Z,5.12
2019-05-07T11:15:52.632Z,3.85
2019-05-07T11:18:26.030Z,4.37
2019-05-07T11:20:54.840Z,4.92
2019-05-07T11:23:23.717Z,5.00
2019-05-07T11:25:52.766Z,4.58
2019-05-07T11:28:22.701Z,6.42
2019-05-07T11:30:51.727Z,6.42
2019-05-07T11:33:22.019Z,4.78
2019-05-07T11:35:52.834Z,4.92
2019-05-07T11:38:24.814Z,3.92
2019-05-07T11:40:52.256Z,4.20
2019-05-07T11:43:25.369Z,6.17
2019-05-07T11:45:59.188Z,4.53
2019-05-07T11:48:28.908Z,5.47
2019-05-07T11:51:12.311Z,6.58
2019-05-07T11:54:01.952Z,4.58
2019-05-07T11:56:32.803Z,4.35
2019-05-07T11:59:02.691Z,5.03
2019-05-07T12:01:43.539Z,4.45
2019-05-07T12:04:03.450Z,5.62
2019-05-07T12:06:32.287Z,4.55
2019-05-07T12:09:03.039Z,5.37
2019-05-07T12:11:32.211Z,4.75
2019-05-07T12:14:02.083Z,5.25
2019-05-07T12:16:32.140Z,4.87
2019-05-07T12:19:02.189Z,4.37
2019-05-07T12:21:31.684Z,5.83
2019-05-07T12:24:02.152Z,6.30
2019-05-07T12:26:32.758Z,5.17
2019-05-07T12:29:01.613Z,6.28
2019-05-07T12:31:37.870Z,5.65
2019-05-07T12:34:08.300Z,7.40
2019-05-07T12:36:37.171Z,5.62
2019-05-07T12:39:08.748Z,6.30
2019-05-07T12:41:37.789Z,5.70
2019-05-07T12:44:09.897Z,6.20
2019-05-07T12:46:38.852Z,5.80
2019-05-07T12:49:07.704Z,7.20
2019-05-07T12:51:44.297Z,5.33
2019-05-07T12:54:23.951Z,4.97
2019-05-07T12:56:52.843Z,6.75
2019-05-07T12:59:21.949Z,5.12
2019-05-07T13:02:21.699Z,5.40
2019-05-07T13:04:41.635Z,4.70
2019-05-07T13:07:11.715Z,4.20
2019-05-07T13:09:42.657Z,9.68
2019-05-07T13:12:11.237Z,5.72
2019-05-07T13:14:40.128Z,4.25
2019-05-07T13:17:08.985Z,5.35
2019-05-07T13:19:39.262Z,6.55
2019-05-07T13:22:08.502Z,6.45
2019-05-07T13:24:37.416Z,5.15
2019-05-07T13:27:06.255Z,5.30
2019-05-07T13:29:35.127Z,5.45
2019-05-07T13:32:05.200Z,4.65
2019-05-07T13:34:34.670Z,6.30
2019-05-07T13:37:14.139Z,8.73
2019-05-07T13:39:44.582Z,6.20
2019-05-07T13:42:32.010Z,5.22
2019-05-07T13:45:02.958Z,4.87
2019-05-07T13:47:33.957Z,4.17
2019-05-07T13:50:02.937Z,6.45
2019-05-07T13:52:33.414Z,6.15
2019-05-07T13:55:02.331Z,5.37
2019-05-07T13:57:32.207Z,4.80
2019-05-07T14:00:02.371Z,5.80
2019-05-07T14:02:32.791Z,5.17
2019-05-07T14:05:01.641Z,4.97
2019-05-07T14:07:32.292Z,6.40
2019-05-07T14:10:02.084Z,4.40
2019-05-07T14:12:33.509Z,8.30
2019-05-07T14:15:02.266Z,5.53
2019-05-07T14:17:31.562Z,6.08
2019-05-07T14:20:02.359Z,8.40
2019-05-07T14:22:31.850Z,5.58
2019-05-07T14:25:00.915Z,7.55
2019-05-07T14:27:29.764Z,6.92
2019-05-07T14:29:58.645Z,5.47
2019-05-07T14:32:44.086Z,6.22
2019-05-07T14:35:24.213Z,5.65
2019-05-07T14:37:57.057Z,6.85
2019-05-07T14:40:25.891Z,5.53
2019-05-07T14:42:59.049Z,6.75
2019-05-07T14:45:27.870Z,9.28
2019-05-07T14:47:56.815Z,5.35
2019-05-07T14:50:25.621Z,7.42
2019-05-07T14:52:55.275Z,5.95
2019-05-07T14:55:24.225Z,5.20
2019-05-07T14:57:53.039Z,7.10
2019-05-07T15:00:22.571Z,5.20
2019-05-07T15:02:52.541Z,6.03
2019-05-07T15:05:26.420Z,6.03
2019-05-07T15:08:07.346Z,6.22
2019-05-07T15:10:25.859Z,6.78
2019-05-07T15:12:54.715Z,7.05
2019-05-07T15:15:23.551Z,7.97
2019-05-07T15:18:02.803Z,5.58
2019-05-07T15:20:33.009Z,7.53
2019-05-07T15:23:04.905Z,5.47
2019-05-07T15:25:33.807Z,5.83
2019-05-07T15:28:03.467Z,5.90
2019-05-07T15:30:33.923Z,7.45
2019-05-07T15:33:02.782Z,7.60
2019-05-07T15:35:32.037Z,7.33
2019-05-07T15:38:02.428Z,7.25
2019-05-07T15:40:33.011Z,6.47
2019-05-07T15:43:02.578Z,8.00
2019-05-07T15:45:31.450Z,7.60
2019-05-07T15:48:02.080Z,7.85
2019-05-07T15:50:32.278Z,8.10
2019-05-07T15:53:08.759Z,6.20
2019-05-07T15:55:37.650Z,7.47
2019-05-07T15:58:06.496Z,7.40
2019-05-07T16:00:36.766Z,6.15
2019-05-07T16:03:19.189Z,6.75
2019-05-07T16:08:17.595Z,6.67
2019-05-07T16:10:46.459Z,6.53
2019-05-07T16:13:22.979Z,9.53
2019-05-07T16:15:52.879Z,8.83
2019-05-07T16:18:23.844Z,7.50
2019-05-07T16:20:52.874Z,9.03
2019-05-07T16:23:22.093Z,7.33
2019-05-07T16:25:52.801Z,8.75
2019-05-07T16:28:22.020Z,8.88
2019-05-07T16:30:52.171Z,8.45
2019-05-07T16:33:21.253Z,6.40
2019-05-07T16:35:50.108Z,6.22
2019-05-07T16:38:19.033Z,7.87
2019-05-07T16:40:47.884Z,7.12
2019-05-07T16:43:16.798Z,6.25
2019-05-07T16:45:45.622Z,7.08
2019-05-07T16:48:14.484Z,7.47
2019-05-07T16:50:43.368Z,7.15
2019-05-07T16:53:26.316Z,7.03
2019-05-07T16:55:43.474Z,6.60
2019-05-07T16:58:29.155Z,8.15
2019-05-07T17:01:00.179Z,5.80
2019-05-07T17:03:33.993Z,9.18
2019-05-07T17:06:02.893Z,6.65
2019-05-07T17:08:33.378Z,5.60
2019-05-07T17:11:03.071Z,16.40
2019-05-07T17:13:32.155Z,6.40
2019-05-07T17:16:03.366Z,6.17
2019-05-07T17:18:32.805Z,7.20
2019-05-07T17:21:02.178Z,6.10
2019-05-07T17:23:43.787Z,6.33
2019-05-07T17:26:02.186Z,6.42
2019-05-07T17:28:31.920Z,8.70
2019-05-07T17:31:03.073Z,9.60
2019-05-07T17:33:32.054Z,9.28
2019-05-07T17:36:02.474Z,7.72
2019-05-07T17:38:32.188Z,7.80
2019-05-07T17:41:10.779Z,8.30
2019-05-07T17:43:32.505Z,7.87
2019-05-07T17:46:02.778Z,8.15
2019-05-07T17:48:32.991Z,13.08
2019-05-07T17:51:06.654Z,8.85
2019-05-07T17:53:35.583Z,8.28
2019-05-07T17:56:05.331Z,10.28
2019-05-07T17:58:34.226Z,8.78
2019-05-07T18:01:04.602Z,8.78
2019-05-07T18:03:35.055Z,9.28
2019-05-07T18:06:04.560Z,5.92
2019-05-07T18:08:33.403Z,7.53
2019-05-07T18:11:02.689Z,6.42
2019-05-07T18:13:32.914Z,10.60
2019-05-07T18:16:06.081Z,8.13
2019-05-07T18:18:34.984Z,8.93
2019-05-07T18:21:05.188Z,8.23
2019-05-07T18:23:34.452Z,6.75
2019-05-07T18:26:03.712Z,7.62
2019-05-07T18:28:32.680Z,10.85
2019-05-07T18:31:02.008Z,9.58
2019-05-07T18:33:33.578Z,9.83
2019-05-07T18:36:03.196Z,8.00
2019-05-07T18:38:32.917Z,9.78
2019-05-07T18:41:02.845Z,7.78
2019-05-07T18:43:33.145Z,9.45
2019-05-07T18:46:02.451Z,7.53
2019-05-07T18:48:31.658Z,6.53
2019-05-07T18:51:02.537Z,6.33
2019-05-07T18:53:31.853Z,8.35
2019-05-07T18:56:01.710Z,8.05
2019-05-07T18:58:31.950Z,8.48
2019-05-07T19:01:02.773Z,9.73
2019-05-07T19:03:32.480Z,7.87
2019-05-07T19:06:02.842Z,11.48
2019-05-07T19:08:32.680Z,7.70
2019-05-07T19:11:05.380Z,8.25
2019-05-07T19:13:32.927Z,8.48
2019-05-07T19:16:02.984Z,9.23
2019-05-07T19:18:32.442Z,9.30
2019-05-07T19:21:01.310Z,7.83
2019-05-07T19:23:30.213Z,8.98
2019-05-07T19:25:59.082Z,6.80
2019-05-07T19:28:27.936Z,7.60
2019-05-07T19:30:56.806Z,8.83
2019-05-07T19:33:27.171Z,6.40
2019-05-07T19:35:56.362Z,7.80
2019-05-07T19:38:25.198Z,8.80
2019-05-07T19:40:54.044Z,8.08
2019-05-07T19:43:22.934Z,7.83
2019-05-07T19:45:52.343Z,6.22
2019-05-07T19:48:23.086Z,6.78
2019-05-07T19:50:52.739Z,6.25
2019-05-07T19:53:23.515Z,5.33
2019-05-07T19:56:12.563Z,5.75
2019-05-07T19:58:41.900Z,6.12
2019-05-07T20:01:12.504Z,4.58
2019-05-07T20:03:43.292Z,5.83
2019-05-07T20:06:12.967Z,7.58
2019-05-07T20:08:43.751Z,5.12
2019-05-07T20:11:14.443Z,4.87
2019-05-07T20:13:43.824Z,6.28
2019-05-07T20:16:20.253Z,7.28
2019-05-07T20:18:49.167Z,5.50
2019-05-07T20:21:18.003Z,5.30
2019-05-07T20:23:46.862Z,4.45
2019-05-07T20:26:15.747Z,5.42
2019-05-07T20:28:44.604Z,6.30
2019-05-07T20:31:13.509Z,7.95
2019-05-07T20:33:42.513Z,5.05
2019-05-07T20:36:11.536Z,5.72
2019-05-07T20:38:42.539Z,6.00
2019-05-07T20:41:12.934Z,5.35
2019-05-07T20:43:42.835Z,6.45
2019-05-07T20:46:12.160Z,4.90
2019-05-07T20:48:42.314Z,5.12
2019-05-07T20:51:12.530Z,6.25
2019-05-07T20:53:52.544Z,6.90
2019-05-07T20:56:23.132Z,6.55
2019-05-07T20:58:52.143Z,6.72
2019-05-07T21:01:21.974Z,6.33
2019-05-07T21:03:52.745Z,9.08
2019-05-07T21:06:22.531Z,6.58
2019-05-07T21:08:51.682Z,7.58
2019-05-07T21:11:22.566Z,6.72
2019-05-07T21:13:52.284Z,6.70
2019-05-07T21:16:22.119Z,6.25
2019-05-07T21:18:52.791Z,6.37
2019-05-07T21:21:21.997Z,7.17
2019-05-07T21:23:52.714Z,6.00
2019-05-07T21:26:22.465Z,8.25
2019-05-07T21:28:52.842Z,7.37
2019-05-07T21:31:22.736Z,7.30
2019-05-07T21:33:52.475Z,6.85
2019-05-07T21:36:22.898Z,7.78
2019-05-07T21:38:52.015Z,7.97
2019-05-07T21:41:22.761Z,7.03
2019-05-07T21:43:52.804Z,7.87
2019-05-07T21:46:22.360Z,6.67
2019-05-07T21:48:53.568Z,10.23
2019-05-07T21:51:22.906Z,5.87
2019-05-07T21:53:59.423Z,7.25
2019-05-07T21:56:46.269Z,7.37
2019-05-07T21:59:16.744Z,6.35
2019-05-07T22:01:52.481Z,8.23
2019-05-07T22:04:20.663Z,9.08
2019-05-07T22:06:49.505Z,8.28
2019-05-07T22:09:18.946Z,9.28
2019-05-07T22:11:47.822Z,6.65
2019-05-07T22:14:16.681Z,6.65
2019-05-07T22:16:45.570Z,6.40
2019-05-07T22:19:14.446Z,7.97
2019-05-07T22:21:43.495Z,6.12
2019-05-07T22:24:13.073Z,5.62
2019-05-07T22:26:43.006Z,5.72
2019-05-07T22:29:12.680Z,6.62
2019-05-07T22:31:44.233Z,8.30
2019-05-07T22:34:22.261Z,7.22
2019-05-07T22:36:52.490Z,7.50
2019-05-07T22:39:22.053Z,7.12
2019-05-07T22:41:51.115Z,6.67
2019-05-07T22:44:23.716Z,7.60
2019-05-07T22:46:52.602Z,6.65
2019-05-07T22:49:22.896Z,5.87
2019-05-07T22:51:52.569Z,6.65
2019-05-07T22:54:22.622Z,6.65
2019-05-07T22:57:08.892Z,7.00
2019-05-07T22:59:37.795Z,6.60
2019-05-07T23:02:07.062Z,8.83
2019-05-07T23:04:35.956Z,6.80
2019-05-07T23:07:04.812Z,6.53
2019-05-07T23:09:33.660Z,7.15
2019-05-07T23:12:02.557Z,7.83
2019-05-07T23:14:32.978Z,6.12
2019-05-07T23:17:02.314Z,5.65
2019-05-07T23:19:32.642Z,7.20
2019-05-07T23:22:02.757Z,7.62
2019-05-07T23:24:31.949Z,8.18
2019-05-07T23:27:00.847Z,10.08
2019-05-07T23:29:29.747Z,8.13
2019-05-07T23:31:58.598Z,9.65
2019-05-07T23:34:27.442Z,6.60
2019-05-07T23:36:56.330Z,6.42
2019-05-07T23:39:26.753Z,6.45
2019-05-07T23:41:57.206Z,7.17
2019-05-07T23:44:26.085Z,7.90
2019-05-07T23:46:55.334Z,8.18
2019-05-07T23:49:24.214Z,9.38
2019-05-07T23:51:53.329Z,8.75
2019-05-07T23:54:23.161Z,7.17
2019-05-07T23:57:05.047Z,9.30
2019-05-07T23:59:22.801Z,8.70
